createdAt,value
2022-07-26T00:00:35.285Z,21.50
2022-07-26T00:03:20.629Z,21.50
2022-07-26T00:06:06.246Z,21.60
2022-07-26T00:08:51.861Z,21.50
2022-07-26T00:11:36.995Z,21.40
2022-07-26T00:14:22.488Z,21.50
2022-07-26T00:17:08.127Z,21.50
2022-07-26T00:19:53.597Z,21.40
2022-07-26T00:22:41.536Z,21.40
2022-07-26T00:25:27.389Z,21.40
2022-07-26T00:28:13.756Z,21.30
2022-07-26T00:30:59.205Z,21.30
2022-07-26T00:33:44.669Z,21.40
2022-07-26T00:36:31.147Z,21.30
2022-07-26T00:39:16.535Z,21.30
2022-07-26T00:42:02.125Z,21.30
2022-07-26T00:44:47.930Z,21.20
2022-07-26T00:47:33.104Z,21.20
2022-07-26T00:50:19.302Z,21.20
2022-07-26T00:53:05.324Z,21.10
2022-07-26T00:55:51.523Z,21.10
2022-07-26T00:58:37.015Z,21.00
2022-07-26T01:01:22.546Z,21.10
2022-07-26T01:04:08.390Z,21.10
2022-07-26T01:06:54.304Z,21.10
2022-07-26T01:09:40.208Z,21.00
2022-07-26T01:12:25.324Z,21.10
2022-07-26T01:15:13.019Z,21.10
2022-07-26T01:17:58.215Z,21.10
2022-07-26T01:20:44.836Z,21.00
2022-07-26T01:23:31.195Z,21.00
2022-07-26T01:26:17.744Z,21.00
2022-07-26T01:29:04.843Z,20.90
2022-07-26T01:31:50.897Z,21.30
2022-07-26T01:34:36.448Z,20.90
2022-07-26T01:37:21.747Z,20.90
2022-07-26T01:40:08.105Z,20.90
2022-07-26T01:42:54.832Z,20.90
2022-07-26T01:45:40.264Z,20.90
2022-07-26T01:48:25.867Z,20.90
2022-07-26T01:51:11.261Z,20.90
2022-07-26T01:53:56.838Z,20.80
2022-07-26T01:56:43.317Z,20.70
2022-07-26T01:59:28.734Z,20.80
2022-07-26T02:02:14.503Z,20.80
2022-07-26T02:04:59.993Z,20.70
2022-07-26T02:07:45.451Z,20.70
2022-07-26T02:10:49.463Z,18.70
2022-07-26T02:13:40.277Z,20.70
2022-07-26T02:16:26.807Z,20.60
2022-07-26T02:19:12.179Z,20.50
2022-07-26T02:21:57.916Z,20.50
2022-07-26T02:24:43.001Z,20.50
2022-07-26T02:27:28.333Z,20.50
2022-07-26T02:30:13.767Z,20.30
2022-07-26T02:32:59.297Z,20.40
2022-07-26T02:35:46.628Z,20.40
2022-07-26T02:38:32.173Z,20.40
2022-07-26T02:41:17.810Z,20.40
2022-07-26T02:44:03.218Z,20.40
2022-07-26T02:46:48.962Z,20.30
2022-07-26T02:49:34.228Z,20.40
2022-07-26T02:52:20.921Z,20.30
2022-07-26T02:55:06.748Z,20.30
2022-07-26T02:57:52.099Z,20.30
2022-07-26T03:00:37.463Z,20.20
2022-07-26T03:03:23.253Z,20.30
2022-07-26T03:06:08.947Z,20.30
2022-07-26T03:08:54.356Z,20.30
2022-07-26T03:11:39.696Z,20.30
2022-07-26T03:14:26.036Z,20.20
2022-07-26T03:17:11.618Z,20.20
2022-07-26T03:19:56.933Z,20.30
2022-07-26T03:22:42.787Z,20.20
2022-07-26T03:25:28.144Z,20.20
2022-07-26T03:28:18.944Z,20.10
2022-07-26T03:31:04.640Z,20.10
2022-07-26T03:33:50.158Z,20.10
2022-07-26T03:36:35.441Z,20.10
2022-07-26T03:39:20.918Z,20.20
2022-07-26T03:42:06.264Z,20.10
2022-07-26T03:44:51.682Z,20.10
2022-07-26T03:47:37.362Z,20.00
2022-07-26T03:50:23.091Z,20.00
2022-07-26T03:53:08.568Z,20.00
2022-07-26T03:56:12.407Z,19.90
2022-07-26T03:59:00.745Z,20.50
2022-07-26T04:01:47.507Z,19.90
2022-07-26T04:04:32.988Z,19.90
2022-07-26T04:07:18.827Z,19.90
2022-07-26T04:10:05.280Z,20.00
2022-07-26T04:12:50.630Z,19.90
2022-07-26T04:15:36.396Z,20.00
2022-07-26T04:18:22.522Z,20.00
2022-07-26T04:21:10.365Z,19.90
2022-07-26T04:23:55.786Z,19.90
2022-07-26T04:26:41.085Z,19.90
2022-07-26T04:29:26.463Z,19.90
2022-07-26T04:32:11.882Z,20.00
2022-07-26T04:34:57.284Z,19.90
2022-07-26T04:37:43.764Z,20.00
2022-07-26T04:40:33.339Z,20.00
2022-07-26T04:43:19.514Z,20.00
2022-07-26T04:46:04.654Z,20.00
2022-07-26T04:48:50.138Z,20.00
2022-07-26T04:51:35.265Z,19.90
2022-07-26T04:54:22.796Z,19.90
2022-07-26T04:57:08.123Z,19.90
2022-07-26T05:00:10.115Z,19.90
2022-07-26T05:03:00.913Z,19.80
2022-07-26T05:05:46.422Z,21.80
2022-07-26T05:08:31.801Z,19.70
2022-07-26T05:11:17.379Z,19.80
2022-07-26T05:14:02.723Z,19.90
2022-07-26T05:16:48.243Z,20.00
2022-07-26T05:19:34.107Z,19.90
2022-07-26T05:22:19.746Z,19.90
2022-07-26T05:25:05.806Z,20.00
2022-07-26T05:27:51.199Z,20.10
2022-07-26T05:30:36.688Z,20.00
2022-07-26T05:33:22.289Z,20.10
2022-07-26T05:36:07.911Z,20.10
2022-07-26T05:38:52.945Z,20.20
2022-07-26T05:41:38.342Z,20.10
2022-07-26T05:44:24.558Z,19.90
2022-07-26T05:47:11.829Z,20.00
2022-07-26T05:49:57.094Z,20.00
2022-07-26T05:52:42.520Z,20.10
2022-07-26T05:55:27.939Z,20.10
2022-07-26T05:58:13.722Z,20.10
2022-07-26T06:00:59.509Z,20.20
2022-07-26T06:03:45.029Z,20.30
2022-07-26T06:06:30.436Z,20.30
2022-07-26T06:09:16.272Z,20.40
2022-07-26T06:12:01.758Z,20.20
2022-07-26T06:14:47.071Z,20.30
2022-07-26T06:17:32.604Z,20.60
2022-07-26T06:20:18.340Z,20.70
2022-07-26T06:23:03.682Z,20.70
2022-07-26T06:25:49.188Z,20.70
2022-07-26T06:28:35.155Z,20.70
2022-07-26T06:31:20.698Z,20.70
2022-07-26T06:34:06.456Z,20.70
2022-07-26T06:36:55.461Z,20.50
2022-07-26T06:39:41.383Z,20.30
2022-07-26T06:42:26.563Z,20.40
2022-07-26T06:45:11.802Z,20.40
2022-07-26T06:47:57.178Z,20.50
2022-07-26T06:50:42.592Z,20.50
2022-07-26T06:53:27.944Z,20.60
2022-07-26T06:56:14.902Z,20.80
2022-07-26T06:59:00.152Z,20.90
2022-07-26T07:01:58.138Z,21.10
2022-07-26T07:04:45.740Z,21.10
2022-07-26T07:07:31.139Z,21.20
2022-07-26T07:10:19.277Z,21.40
2022-07-26T07:13:09.388Z,21.60
2022-07-26T07:15:54.707Z,21.30
2022-07-26T07:18:40.269Z,21.20
2022-07-26T07:21:25.868Z,21.10
2022-07-26T07:24:11.849Z,21.10
2022-07-26T07:26:59.640Z,21.30
2022-07-26T07:29:45.229Z,21.40
2022-07-26T07:32:31.032Z,21.60
2022-07-26T07:35:16.460Z,21.60
2022-07-26T07:38:04.924Z,21.60
2022-07-26T07:40:51.669Z,21.50
2022-07-26T07:43:37.179Z,21.70
2022-07-26T07:46:22.531Z,21.90
2022-07-26T07:49:08.644Z,21.80
2022-07-26T07:51:54.470Z,21.70
2022-07-26T07:54:39.985Z,21.70
2022-07-26T07:57:27.422Z,21.60
2022-07-26T08:00:16.692Z,22.10
2022-07-26T08:03:03.679Z,22.30
2022-07-26T08:05:50.610Z,22.40
2022-07-26T08:08:37.791Z,22.10
2022-07-26T08:11:23.802Z,21.70
2022-07-26T08:14:15.140Z,21.70
2022-07-26T08:17:03.385Z,21.80
2022-07-26T08:19:48.953Z,21.80
2022-07-26T08:22:34.390Z,22.10
2022-07-26T08:25:20.290Z,23.00
2022-07-26T08:28:06.033Z,24.00
2022-07-26T08:30:51.655Z,22.60
2022-07-26T08:33:37.023Z,22.20
2022-07-26T08:36:32.148Z,23.20
2022-07-26T08:39:18.529Z,22.30
2022-07-26T08:42:04.328Z,22.50
2022-07-26T08:44:51.728Z,22.70
2022-07-26T08:47:50.315Z,22.60
2022-07-26T08:50:42.867Z,22.70
2022-07-26T08:53:29.593Z,22.60
2022-07-26T08:56:15.062Z,22.80
2022-07-26T08:59:03.926Z,22.90
2022-07-26T09:01:54.561Z,23.00
2022-07-26T09:04:45.085Z,22.80
2022-07-26T09:07:33.739Z,23.00
2022-07-26T09:10:19.099Z,23.30
2022-07-26T09:13:04.456Z,23.40
2022-07-26T09:16:11.756Z,23.40
2022-07-26T09:19:17.578Z,22.40
2022-07-26T09:22:16.101Z,21.40
2022-07-26T09:25:01.692Z,21.30
2022-07-26T09:27:47.001Z,21.20
2022-07-26T09:30:33.042Z,20.70
2022-07-26T09:33:18.580Z,20.50
2022-07-26T09:36:06.824Z,20.60
2022-07-26T09:39:00.110Z,20.50
2022-07-26T09:41:45.207Z,20.40
2022-07-26T09:44:30.781Z,20.40
2022-07-26T09:47:16.270Z,20.10
2022-07-26T09:50:22.248Z,19.80
2022-07-26T09:53:11.738Z,19.50
2022-07-26T09:55:57.492Z,19.30
2022-07-26T09:58:43.186Z,19.30
2022-07-26T10:01:29.020Z,19.10
2022-07-26T10:04:15.377Z,19.00
2022-07-26T10:07:02.866Z,19.10
2022-07-26T10:09:57.405Z,19.10
2022-07-26T10:12:46.781Z,20.80
2022-07-26T10:15:47.242Z,19.20
2022-07-26T10:18:39.252Z,19.30
2022-07-26T10:21:29.901Z,19.30
2022-07-26T10:24:26.680Z,19.40
2022-07-26T10:27:41.862Z,19.40
2022-07-26T10:30:34.920Z,19.30
2022-07-26T10:33:24.193Z,18.90
2022-07-26T10:36:41.841Z,18.60
2022-07-26T10:39:28.151Z,18.80
2022-07-26T10:42:13.492Z,18.70
2022-07-26T10:45:17.202Z,18.90
2022-07-26T10:48:34.911Z,19.00
2022-07-26T10:51:33.593Z,19.10
2022-07-26T10:54:19.051Z,19.30
2022-07-26T10:57:04.582Z,19.30
2022-07-26T10:59:57.440Z,19.00
2022-07-26T11:02:44.012Z,19.00
2022-07-26T11:05:31.577Z,19.10
2022-07-26T11:08:16.863Z,19.00
2022-07-26T11:11:02.097Z,18.80
2022-07-26T11:13:47.575Z,18.70
2022-07-26T11:16:47.907Z,18.70
2022-07-26T11:19:39.742Z,18.80
2022-07-26T11:22:35.757Z,19.20
2022-07-26T11:25:22.114Z,19.50
2022-07-26T11:28:08.389Z,19.60
2022-07-26T11:30:58.488Z,20.10
2022-07-26T11:33:46.627Z,19.00
2022-07-26T11:36:43.932Z,20.20
2022-07-26T11:39:34.897Z,20.10
2022-07-26T11:42:21.510Z,19.80
2022-07-26T11:45:10.002Z,19.20
2022-07-26T11:47:58.645Z,19.30
2022-07-26T11:50:46.833Z,19.60
2022-07-26T11:53:39.126Z,19.80
2022-07-26T11:56:24.389Z,20.30
2022-07-26T11:59:13.693Z,20.70
2022-07-26T12:02:00.394Z,20.70
2022-07-26T12:04:45.769Z,20.80
2022-07-26T12:07:31.341Z,21.00
2022-07-26T12:10:16.760Z,21.20
2022-07-26T12:13:14.246Z,21.10
2022-07-26T12:15:59.719Z,21.40
2022-07-26T12:18:51.411Z,21.20
2022-07-26T12:21:47.527Z,21.30
2022-07-26T12:24:38.018Z,22.60
2022-07-26T12:27:26.354Z,21.60
2022-07-26T12:30:11.674Z,22.10
2022-07-26T12:33:02.000Z,22.20
2022-07-26T12:35:47.230Z,21.70
2022-07-26T12:38:40.075Z,21.50
2022-07-26T12:41:36.983Z,21.20
2022-07-26T12:44:23.443Z,21.20
2022-07-26T12:47:08.795Z,21.40
2022-07-26T12:49:54.557Z,21.40
2022-07-26T12:52:40.248Z,21.50
2022-07-26T12:55:26.077Z,21.50
2022-07-26T12:58:11.465Z,21.40
2022-07-26T13:00:56.825Z,21.40
2022-07-26T13:03:42.254Z,21.50
2022-07-26T13:06:27.768Z,21.50
2022-07-26T13:09:13.105Z,21.50
2022-07-26T13:11:58.885Z,21.30
2022-07-26T13:14:44.266Z,21.20
2022-07-26T13:17:29.492Z,21.20
2022-07-26T13:20:14.799Z,21.20
2022-07-26T13:23:03.123Z,21.00
2022-07-26T13:25:49.720Z,21.10
2022-07-26T13:28:35.432Z,20.90
2022-07-26T13:31:20.914Z,20.60
2022-07-26T13:34:06.574Z,20.70
2022-07-26T13:36:52.141Z,20.60
2022-07-26T13:39:37.296Z,20.50
2022-07-26T13:42:22.633Z,20.50
2022-07-26T13:45:08.645Z,20.60
2022-07-26T13:47:54.268Z,21.00
2022-07-26T13:50:40.022Z,21.50
2022-07-26T13:53:26.026Z,21.70
2022-07-26T13:56:11.528Z,21.90
2022-07-26T13:58:57.009Z,22.40
2022-07-26T14:01:44.434Z,22.10
2022-07-26T14:04:30.456Z,22.10
2022-07-26T14:07:15.889Z,22.40
2022-07-26T14:10:01.806Z,22.50
2022-07-26T14:12:47.889Z,22.60
2022-07-26T14:15:33.183Z,22.20
2022-07-26T14:18:20.448Z,21.90
2022-07-26T14:21:10.284Z,21.80
2022-07-26T14:23:57.431Z,21.50
2022-07-26T14:26:43.174Z,21.40
2022-07-26T14:29:28.615Z,21.20
2022-07-26T14:32:19.461Z,21.20
2022-07-26T14:35:07.437Z,21.00
2022-07-26T14:37:52.931Z,20.80
2022-07-26T14:40:38.728Z,20.50
2022-07-26T14:43:26.721Z,20.20
2022-07-26T14:46:12.858Z,20.10
2022-07-26T14:48:58.411Z,20.00
2022-07-26T14:51:44.107Z,20.00
2022-07-26T14:54:29.629Z,20.00
2022-07-26T14:57:15.288Z,20.10
2022-07-26T15:00:00.450Z,20.20
2022-07-26T15:02:47.976Z,21.10
2022-07-26T15:05:33.121Z,20.10
2022-07-26T15:08:18.444Z,20.00
2022-07-26T15:11:05.479Z,20.00
2022-07-26T15:13:51.109Z,20.20
2022-07-26T15:16:36.543Z,20.30
2022-07-26T15:19:25.672Z,20.40
2022-07-26T15:22:11.420Z,20.50
2022-07-26T15:24:56.897Z,20.60
2022-07-26T15:27:43.629Z,20.60
2022-07-26T15:30:29.032Z,20.60
2022-07-26T15:33:14.604Z,21.70
2022-07-26T15:36:03.969Z,20.60
2022-07-26T15:38:51.178Z,20.70
2022-07-26T15:41:36.572Z,21.50
2022-07-26T15:44:25.780Z,20.60
2022-07-26T15:47:15.532Z,20.60
2022-07-26T15:50:17.324Z,20.50
2022-07-26T15:53:02.285Z,20.40
2022-07-26T15:55:48.244Z,20.60
2022-07-26T15:58:33.743Z,20.70
2022-07-26T16:01:19.113Z,20.70
2022-07-26T16:04:06.386Z,20.70
2022-07-26T16:06:51.452Z,20.60
2022-07-26T16:09:36.974Z,20.60
2022-07-26T16:12:22.329Z,20.40
2022-07-26T16:15:09.319Z,20.30
2022-07-26T16:17:54.571Z,20.30
2022-07-26T16:20:40.198Z,20.30
2022-07-26T16:23:25.263Z,20.40
2022-07-26T16:26:10.618Z,20.60
2022-07-26T16:28:55.970Z,21.00
2022-07-26T16:31:41.839Z,21.20
2022-07-26T16:34:28.303Z,21.60
2022-07-26T16:37:13.627Z,22.10
2022-07-26T16:39:59.244Z,22.20
2022-07-26T16:42:44.577Z,22.40
2022-07-26T16:45:30.198Z,22.20
2022-07-26T16:48:16.968Z,21.70
2022-07-26T16:51:02.631Z,21.30
2022-07-26T16:53:51.239Z,21.40
2022-07-26T16:56:36.594Z,21.60
2022-07-26T16:59:21.993Z,21.60
2022-07-26T17:02:08.925Z,21.40
2022-07-26T17:04:56.475Z,21.10
2022-07-26T17:07:42.329Z,21.20
2022-07-26T17:10:28.013Z,20.10
2022-07-26T17:13:13.240Z,21.20
2022-07-26T17:15:58.828Z,21.10
2022-07-26T17:18:44.161Z,20.90
2022-07-26T17:21:29.760Z,20.70
2022-07-26T17:24:16.455Z,20.90
2022-07-26T17:27:02.170Z,21.50
2022-07-26T17:29:47.648Z,21.00
2022-07-26T17:32:33.314Z,21.30
2022-07-26T17:35:19.264Z,21.70
2022-07-26T17:38:04.623Z,21.90
2022-07-26T17:40:50.469Z,22.10
2022-07-26T17:43:36.881Z,22.00
2022-07-26T17:46:22.390Z,22.10
2022-07-26T17:49:08.163Z,22.10
2022-07-26T17:51:56.524Z,21.50
2022-07-26T17:54:41.499Z,21.20
2022-07-26T17:57:27.744Z,21.00
2022-07-26T18:00:13.750Z,20.90
2022-07-26T18:02:59.106Z,20.60
2022-07-26T18:05:44.598Z,20.30
2022-07-26T18:08:30.032Z,20.20
2022-07-26T18:11:15.533Z,20.30
2022-07-26T18:14:01.080Z,20.30
2022-07-26T18:16:48.317Z,20.30
2022-07-26T18:19:39.896Z,20.10
2022-07-26T18:22:25.595Z,20.10
2022-07-26T18:25:10.897Z,20.10
2022-07-26T18:27:56.369Z,20.10
2022-07-26T18:30:41.988Z,20.00
2022-07-26T18:33:27.259Z,19.90
2022-07-26T18:36:17.286Z,19.90
2022-07-26T18:39:03.335Z,19.90
2022-07-26T18:41:48.822Z,19.80
2022-07-26T18:44:37.043Z,19.70
2022-07-26T18:47:22.411Z,19.70
2022-07-26T18:50:09.365Z,19.70
2022-07-26T18:52:54.624Z,19.70
2022-07-26T18:55:40.067Z,19.70
2022-07-26T18:58:26.527Z,19.70
2022-07-26T19:01:13.572Z,19.60
2022-07-26T19:04:00.433Z,19.50
2022-07-26T19:06:49.314Z,19.50
2022-07-26T19:09:35.641Z,19.50
2022-07-26T19:12:21.231Z,19.40
2022-07-26T19:15:07.452Z,19.40
2022-07-26T19:17:54.842Z,19.40
2022-07-26T19:20:40.557Z,19.40
2022-07-26T19:23:25.724Z,19.40
2022-07-26T19:26:11.222Z,19.40
2022-07-26T19:28:57.035Z,18.60
2022-07-26T19:31:45.846Z,19.30
2022-07-26T19:34:31.292Z,19.20
2022-07-26T19:37:21.120Z,19.20
2022-07-26T19:40:07.108Z,19.20
2022-07-26T19:42:52.650Z,19.10
2022-07-26T19:45:37.833Z,19.10
2022-07-26T19:48:23.202Z,19.00
2022-07-26T19:51:08.567Z,19.00
2022-07-26T19:53:54.044Z,18.90
2022-07-26T19:56:40.000Z,18.90
2022-07-26T19:59:25.559Z,18.90
2022-07-26T20:02:11.135Z,18.80
2022-07-26T20:04:56.520Z,18.80
2022-07-26T20:07:41.898Z,18.70
2022-07-26T20:10:31.998Z,18.70
2022-07-26T20:13:17.963Z,18.50
2022-07-26T20:16:05.188Z,18.50
2022-07-26T20:18:50.920Z,18.50
2022-07-26T20:21:36.538Z,18.50
2022-07-26T20:24:21.997Z,18.50
2022-07-26T20:27:07.731Z,18.40
2022-07-26T20:29:56.224Z,18.40
2022-07-26T20:32:44.697Z,18.40
2022-07-26T20:35:31.347Z,18.40
2022-07-26T20:38:18.381Z,18.40
2022-07-26T20:41:04.426Z,18.40
2022-07-26T20:43:51.334Z,18.30
2022-07-26T20:46:39.952Z,18.30
2022-07-26T20:49:25.691Z,18.20
2022-07-26T20:52:11.077Z,18.10
2022-07-26T20:54:56.350Z,18.10
2022-07-26T20:57:41.899Z,18.00
2022-07-26T21:00:27.718Z,17.90
2022-07-26T21:03:16.639Z,17.80
2022-07-26T21:06:01.802Z,17.70
2022-07-26T21:08:47.350Z,17.70
2022-07-26T21:11:32.699Z,17.70
2022-07-26T21:14:18.100Z,17.50
2022-07-26T21:17:07.903Z,17.60
2022-07-26T21:19:54.774Z,17.60
2022-07-26T21:22:40.220Z,17.40
2022-07-26T21:25:25.708Z,17.30
2022-07-26T21:28:11.282Z,17.20
2022-07-26T21:30:56.852Z,17.20
2022-07-26T21:33:44.601Z,17.30
2022-07-26T21:36:30.029Z,17.30
2022-07-26T21:39:16.427Z,17.10
2022-07-26T21:42:01.690Z,17.10
2022-07-26T21:44:46.946Z,17.00
2022-07-26T21:47:32.332Z,17.00
2022-07-26T21:50:17.693Z,16.80
2022-07-26T21:53:03.280Z,16.90
2022-07-26T21:55:48.643Z,16.80
2022-07-26T21:58:36.856Z,16.80
2022-07-26T22:01:22.546Z,16.70
2022-07-26T22:04:08.214Z,16.70
2022-07-26T22:06:54.043Z,16.60
2022-07-26T22:09:39.436Z,16.60
2022-07-26T22:12:24.850Z,16.60
2022-07-26T22:15:10.508Z,16.60
2022-07-26T22:17:55.719Z,16.60
2022-07-26T22:20:41.756Z,16.50
2022-07-26T22:23:30.242Z,16.40
2022-07-26T22:26:16.112Z,16.40
2022-07-26T22:29:01.643Z,16.40
2022-07-26T22:31:47.074Z,16.30
2022-07-26T22:34:32.385Z,16.30
2022-07-26T22:37:17.869Z,16.20
2022-07-26T22:40:03.574Z,16.20
2022-07-26T22:42:49.947Z,16.10
2022-07-26T22:45:35.855Z,16.10
2022-07-26T22:48:21.386Z,16.10
2022-07-26T22:51:06.714Z,16.10
2022-07-26T22:53:52.014Z,16.00
2022-07-26T22:56:37.583Z,16.00
2022-07-26T22:59:25.211Z,16.00
2022-07-26T23:02:10.407Z,16.00
2022-07-26T23:04:55.850Z,16.00
2022-07-26T23:07:45.961Z,15.90
2022-07-26T23:10:33.775Z,15.90
2022-07-26T23:13:19.240Z,15.90
2022-07-26T23:16:05.358Z,15.80
2022-07-26T23:18:54.086Z,15.80
2022-07-26T23:21:39.599Z,16.00
2022-07-26T23:24:25.132Z,15.70
2022-07-26T23:27:10.717Z,15.70
2022-07-26T23:29:56.248Z,15.70
2022-07-26T23:32:41.525Z,15.60
2022-07-26T23:35:27.023Z,15.60
2022-07-26T23:38:12.404Z,15.60
2022-07-26T23:40:57.800Z,15.60
2022-07-26T23:43:43.914Z,15.60
2022-07-26T23:46:29.357Z,15.60
2022-07-26T23:49:15.283Z,15.50
2022-07-26T23:52:00.908Z,15.60
2022-07-26T23:54:46.350Z,15.60
2022-07-26T23:57:31.810Z,15.60
